createdAt,value
2023-04-17T00:01:06.289Z,17.48
2023-04-17T00:04:10.970Z,12.80
2023-04-17T00:07:15.705Z,16.58
2023-04-17T00:10:18.541Z,17.65
2023-04-17T00:13:21.312Z,15.63
2023-04-17T00:16:24.398Z,15.10
2023-04-17T00:19:27.199Z,14.63
2023-04-17T00:22:31.383Z,15.13
2023-04-17T00:25:34.232Z,17.08
2023-04-17T00:28:37.212Z,17.27
2023-04-17T00:31:40.285Z,16.02
2023-04-17T00:34:43.159Z,16.33
2023-04-17T00:37:48.786Z,15.65
2023-04-17T00:40:54.795Z,17.38
2023-04-17T00:43:57.552Z,16.05
2023-04-17T00:47:00.340Z,14.23
2023-04-17T00:50:04.047Z,15.73
2023-04-17T00:53:08.464Z,15.23
2023-04-17T00:56:11.932Z,16.60
2023-04-17T00:59:18.488Z,16.63
2023-04-17T01:02:21.677Z,17.63
2023-04-17T01:05:25.214Z,15.40
2023-04-17T01:08:30.723Z,14.82
2023-04-17T01:11:33.907Z,16.17
2023-04-17T01:14:36.789Z,18.30
2023-04-17T01:17:39.930Z,16.48
2023-04-17T01:20:43.274Z,17.53
2023-04-17T01:23:52.005Z,16.25
2023-04-17T01:26:56.354Z,16.13
2023-04-17T01:29:59.080Z,14.80
2023-04-17T01:33:02.109Z,17.67
2023-04-17T01:36:05.671Z,17.23
2023-04-17T01:39:08.443Z,16.00
2023-04-17T01:42:12.720Z,19.33
2023-04-17T01:45:15.550Z,15.55
2023-04-17T01:48:18.539Z,15.98
2023-04-17T01:51:21.597Z,15.27
2023-04-17T01:54:24.959Z,15.95
2023-04-17T01:57:29.347Z,16.70
2023-04-17T02:00:32.320Z,15.20
2023-04-17T02:03:35.489Z,17.88
2023-04-17T02:06:38.895Z,14.10
2023-04-17T02:09:41.683Z,15.27
2023-04-17T02:12:46.146Z,17.45
2023-04-17T02:15:49.021Z,16.80
2023-04-17T02:18:53.217Z,16.80
2023-04-17T02:21:56.226Z,16.80
2023-04-17T02:24:59.154Z,16.38
2023-04-17T02:28:03.829Z,16.80
2023-04-17T02:31:08.783Z,17.25
2023-04-17T02:34:12.746Z,18.52
2023-04-17T02:37:15.971Z,16.27
2023-04-17T02:40:18.925Z,15.10
2023-04-17T02:43:23.134Z,15.95
2023-04-17T02:46:25.930Z,17.90
2023-04-17T02:49:28.817Z,15.60
2023-04-17T02:52:32.597Z,19.40
2023-04-17T02:55:35.667Z,15.35
2023-04-17T02:58:39.891Z,18.92
2023-04-17T03:01:42.931Z,14.63
2023-04-17T03:04:45.809Z,17.58
2023-04-17T03:07:48.756Z,14.67
2023-04-17T03:10:51.505Z,15.75
2023-04-17T03:13:55.655Z,15.77
2023-04-17T03:16:58.455Z,17.15
2023-04-17T03:20:01.360Z,16.60
2023-04-17T03:23:04.096Z,18.20
2023-04-17T03:26:06.874Z,17.02
2023-04-17T03:29:11.393Z,17.00
2023-04-17T03:32:14.304Z,15.40
2023-04-17T03:35:17.210Z,15.38
2023-04-17T03:38:20.205Z,17.27
2023-04-17T03:41:22.949Z,15.25
2023-04-17T03:44:27.160Z,16.90
2023-04-17T03:47:30.523Z,15.90
2023-04-17T03:50:33.448Z,18.20
2023-04-17T03:53:36.213Z,15.83
2023-04-17T03:56:38.962Z,15.88
2023-04-17T03:59:43.199Z,17.02
2023-04-17T04:02:46.404Z,14.07
2023-04-17T04:05:49.429Z,16.95
2023-04-17T04:08:52.599Z,15.77
2023-04-17T04:11:55.627Z,16.48
2023-04-17T04:15:00.202Z,15.90
2023-04-17T04:18:03.086Z,18.35
2023-04-17T04:21:06.247Z,19.00
2023-04-17T04:24:10.055Z,18.23
2023-04-17T04:27:12.975Z,16.88
2023-04-17T04:30:17.863Z,18.17
2023-04-17T04:33:21.552Z,19.88
2023-04-17T04:36:25.112Z,20.63
2023-04-17T04:39:29.847Z,17.77
2023-04-17T04:42:32.963Z,15.90
2023-04-17T04:45:37.282Z,19.48
2023-04-17T04:48:42.053Z,19.17
2023-04-17T04:51:45.951Z,19.67
2023-04-17T04:54:48.728Z,17.27
2023-04-17T04:57:53.537Z,19.50
2023-04-17T05:00:57.789Z,22.23
2023-04-17T05:04:01.145Z,20.40
2023-04-17T05:07:05.112Z,22.65
2023-04-17T05:10:08.851Z,20.47
2023-04-17T05:13:11.658Z,21.45
2023-04-17T05:16:15.823Z,23.30
2023-04-17T05:19:18.654Z,24.50
2023-04-17T05:22:21.712Z,22.10
2023-04-17T05:25:24.492Z,25.37
2023-04-17T05:28:29.654Z,25.25
2023-04-17T05:31:33.861Z,23.33
2023-04-17T05:34:36.818Z,25.58
2023-04-17T05:37:39.730Z,25.77
2023-04-17T05:40:42.459Z,28.00
2023-04-17T05:43:45.442Z,25.63
2023-04-17T05:46:49.517Z,24.93
2023-04-17T05:49:57.449Z,29.95
2023-04-17T05:53:00.226Z,26.23
2023-04-17T05:56:04.077Z,24.77
2023-04-17T05:59:07.017Z,26.23
2023-04-17T06:02:11.538Z,26.77
2023-04-17T06:05:14.568Z,24.98
2023-04-17T06:08:17.623Z,25.45
2023-04-17T06:11:20.328Z,26.65
2023-04-17T06:14:23.147Z,26.67
2023-04-17T06:17:27.306Z,26.73
2023-04-17T06:20:30.058Z,28.55
2023-04-17T06:23:32.971Z,24.85
2023-04-17T06:26:35.737Z,24.23
2023-04-17T06:29:38.749Z,26.23
2023-04-17T06:32:44.301Z,25.33
2023-04-17T06:35:47.201Z,27.08
2023-04-17T06:38:50.221Z,26.85
2023-04-17T06:41:53.041Z,25.50
2023-04-17T06:44:56.210Z,27.42
2023-04-17T06:48:00.440Z,28.60
2023-04-17T06:51:03.411Z,24.42
2023-04-17T06:54:06.250Z,26.58
2023-04-17T06:57:10.792Z,27.00
2023-04-17T07:00:14.838Z,25.75
2023-04-17T07:03:19.049Z,27.40
2023-04-17T07:06:23.306Z,22.48
2023-04-17T07:09:27.261Z,26.08
2023-04-17T07:12:30.005Z,24.42
2023-04-17T07:15:32.808Z,24.05
2023-04-17T07:18:36.974Z,24.50
2023-04-17T07:21:39.828Z,23.40
2023-04-17T07:24:42.671Z,24.05
2023-04-17T07:27:45.386Z,21.63
2023-04-17T07:30:48.124Z,20.85
2023-04-17T07:33:52.253Z,19.63
2023-04-17T07:36:56.721Z,21.90
2023-04-17T07:39:59.439Z,23.23
2023-04-17T07:43:02.274Z,21.83
2023-04-17T07:46:05.341Z,20.92
2023-04-17T07:49:12.202Z,20.75
2023-04-17T07:52:17.776Z,21.50
2023-04-17T07:55:20.636Z,19.23
2023-04-17T07:58:24.184Z,20.40
2023-04-17T08:01:27.766Z,25.35
2023-04-17T08:04:33.009Z,20.65
2023-04-17T08:07:36.552Z,23.65
2023-04-17T08:10:39.274Z,20.07
2023-04-17T08:13:42.204Z,19.17
2023-04-17T08:16:45.146Z,21.40
2023-04-17T08:19:50.253Z,21.45
2023-04-17T08:22:53.157Z,21.25
2023-04-17T08:25:55.899Z,19.00
2023-04-17T08:29:01.501Z,18.00
2023-04-17T08:32:13.389Z,18.60
2023-04-17T08:35:19.282Z,18.55
2023-04-17T08:38:22.113Z,18.92
2023-04-17T08:41:29.377Z,17.27
2023-04-17T08:44:32.199Z,17.63
2023-04-17T08:47:35.623Z,17.40
2023-04-17T08:50:41.114Z,16.45
2023-04-17T08:53:43.953Z,18.48
2023-04-17T08:56:46.699Z,16.43
2023-04-17T08:59:49.437Z,16.50
2023-04-17T09:02:56.863Z,15.43
2023-04-17T09:06:01.244Z,16.27
2023-04-17T09:09:04.512Z,21.73
2023-04-17T09:12:10.376Z,17.37
2023-04-17T09:15:17.377Z,15.97
2023-04-17T09:18:25.749Z,18.38
2023-04-17T09:21:29.977Z,16.48
2023-04-17T09:24:37.675Z,15.85
2023-04-17T09:27:40.661Z,18.50
2023-04-17T09:30:43.616Z,14.73
2023-04-17T09:33:57.563Z,18.35
2023-04-17T09:37:01.734Z,18.30
2023-04-17T09:40:08.049Z,15.65
2023-04-17T09:43:11.650Z,18.47
2023-04-17T09:46:31.184Z,15.20
2023-04-17T09:49:40.618Z,15.70
2023-04-17T09:52:45.034Z,14.07
2023-04-17T09:55:49.223Z,17.38
2023-04-17T09:58:54.329Z,13.70
2023-04-17T10:01:57.233Z,15.70
2023-04-17T10:05:01.076Z,15.43
2023-04-17T10:08:05.771Z,16.17
2023-04-17T10:11:09.486Z,14.20
2023-04-17T10:14:18.116Z,14.03
2023-04-17T10:17:24.529Z,16.10
2023-04-17T10:20:35.500Z,14.32
2023-04-17T10:23:41.082Z,16.23
2023-04-17T10:26:43.947Z,14.13
2023-04-17T10:29:56.920Z,13.23
2023-04-17T10:33:22.770Z,14.30
2023-04-17T10:36:58.640Z,15.48
2023-04-17T10:40:03.754Z,14.90
2023-04-17T10:43:12.327Z,13.70
2023-04-17T10:46:16.241Z,13.50
2023-04-17T10:49:21.123Z,15.73
2023-04-17T10:52:40.808Z,16.05
2023-04-17T10:55:50.661Z,14.63
2023-04-17T10:58:58.824Z,14.57
2023-04-17T11:02:04.620Z,14.60
2023-04-17T11:05:08.541Z,14.83
2023-04-17T11:08:12.205Z,16.30
2023-04-17T11:11:23.577Z,14.82
2023-04-17T11:14:42.587Z,13.45
2023-04-17T11:17:49.326Z,14.70
2023-04-17T11:20:53.513Z,15.60
2023-04-17T11:23:56.362Z,12.55
2023-04-17T11:27:01.784Z,17.58
2023-04-17T11:30:04.888Z,17.60
2023-04-17T11:33:09.163Z,15.67
2023-04-17T11:36:12.228Z,13.73
2023-04-17T11:39:16.092Z,13.70
2023-04-17T11:42:28.092Z,14.52
2023-04-17T11:45:32.436Z,15.27
2023-04-17T11:48:35.958Z,16.23
2023-04-17T11:51:38.826Z,15.33
2023-04-17T11:54:41.576Z,14.50
2023-04-17T11:57:45.687Z,14.85
2023-04-17T12:01:05.433Z,15.85
2023-04-17T12:04:21.711Z,14.57
2023-04-17T12:07:25.569Z,15.73
2023-04-17T12:10:40.741Z,14.82
2023-04-17T12:13:44.929Z,14.27
2023-04-17T12:16:50.213Z,14.63
2023-04-17T12:19:53.165Z,17.17
2023-04-17T12:22:55.881Z,15.23
2023-04-17T12:25:58.706Z,15.40
2023-04-17T12:29:03.423Z,16.73
2023-04-17T12:32:06.647Z,16.15
2023-04-17T12:35:10.344Z,16.93
2023-04-17T12:38:13.759Z,15.43
2023-04-17T12:41:16.644Z,18.40
2023-04-17T12:44:20.695Z,18.63
2023-04-17T12:47:23.545Z,18.27
2023-04-17T12:50:26.379Z,18.13
2023-04-17T12:53:29.921Z,18.73
2023-04-17T12:56:32.966Z,18.88
2023-04-17T12:59:37.012Z,19.33
2023-04-17T13:02:39.875Z,18.45
2023-04-17T13:05:42.997Z,18.80
2023-04-17T13:08:45.858Z,17.70
2023-04-17T13:11:48.729Z,19.35
2023-04-17T13:14:52.999Z,18.67
2023-04-17T13:17:55.972Z,18.00
2023-04-17T13:20:58.871Z,17.80
2023-04-17T13:24:01.598Z,18.97
2023-04-17T13:27:05.122Z,14.85
2023-04-17T13:30:10.802Z,16.63
2023-04-17T13:33:13.500Z,17.83
2023-04-17T13:39:36.793Z,17.40
2023-04-17T13:42:39.679Z,17.42
2023-04-17T13:45:43.758Z,17.38
2023-04-17T13:48:46.514Z,17.83
2023-04-17T13:51:49.333Z,17.13
2023-04-17T13:54:51.988Z,17.33
2023-04-17T13:57:55.082Z,19.08
2023-04-17T14:00:59.163Z,20.10
2023-04-17T14:04:02.130Z,20.98
2023-04-17T14:07:05.465Z,17.80
2023-04-17T14:10:09.896Z,18.43
2023-04-17T14:13:12.693Z,18.88
2023-04-17T14:16:18.670Z,17.60
2023-04-17T14:19:21.581Z,16.67
2023-04-17T14:22:24.416Z,17.67
2023-04-17T14:25:27.199Z,16.97
2023-04-17T14:28:30.028Z,18.13
2023-04-17T14:31:34.260Z,15.80
2023-04-17T14:34:37.208Z,18.50
2023-04-17T14:37:39.915Z,16.87
2023-04-17T14:40:42.661Z,20.17
2023-04-17T14:43:45.919Z,17.85
2023-04-17T14:46:50.473Z,15.65
2023-04-17T14:49:53.284Z,16.02
2023-04-17T14:52:56.776Z,13.83
2023-04-17T14:56:00.250Z,16.13
2023-04-17T14:59:03.104Z,17.00
2023-04-17T15:02:07.495Z,16.95
2023-04-17T15:05:11.128Z,17.00
2023-04-17T15:08:13.825Z,16.40
2023-04-17T15:11:16.980Z,17.43
2023-04-17T15:14:20.221Z,16.33
2023-04-17T15:17:24.308Z,18.08
2023-04-17T15:20:28.525Z,16.33
2023-04-17T15:23:31.406Z,17.73
2023-04-17T15:26:34.372Z,14.77
2023-04-17T15:29:37.119Z,14.75
2023-04-17T15:32:41.691Z,17.50
2023-04-17T15:35:44.809Z,14.18
2023-04-17T15:38:47.653Z,15.27
2023-04-17T15:41:50.850Z,15.03
2023-04-17T15:44:55.534Z,15.63
2023-04-17T15:48:00.840Z,13.73
2023-04-17T15:51:04.335Z,15.73
2023-04-17T15:54:07.314Z,14.60
2023-04-17T15:57:10.070Z,13.10
2023-04-17T16:00:14.076Z,13.45
2023-04-17T16:03:18.398Z,14.27
2023-04-17T16:06:21.574Z,13.27
2023-04-17T16:09:24.828Z,13.30
2023-04-17T16:12:28.165Z,12.02
2023-04-17T16:15:31.870Z,12.88
2023-04-17T16:18:36.430Z,11.03
2023-04-17T16:21:39.611Z,11.93
2023-04-17T16:24:42.402Z,11.82
2023-04-17T16:27:45.196Z,11.35
2023-04-17T16:30:49.152Z,12.20
2023-04-17T16:33:53.428Z,11.20
2023-04-17T16:36:56.282Z,12.10
2023-04-17T16:40:04.315Z,11.38
2023-04-17T16:43:07.572Z,12.18
2023-04-17T16:46:20.733Z,11.95
2023-04-17T16:49:26.928Z,11.90
2023-04-17T16:52:29.924Z,13.87
2023-04-17T16:55:32.757Z,12.75
2023-04-17T16:58:35.527Z,12.75
2023-04-17T17:01:38.370Z,13.82
2023-04-17T17:04:42.611Z,14.23
2023-04-17T17:07:45.579Z,15.60
2023-04-17T17:10:49.820Z,12.95
2023-04-17T17:13:54.027Z,13.07
2023-04-17T17:16:56.811Z,14.13
2023-04-17T17:20:00.991Z,14.93
2023-04-17T17:23:03.835Z,13.13
2023-04-17T17:26:07.125Z,12.82
2023-04-17T17:29:09.814Z,14.05
2023-04-17T17:32:14.186Z,15.20
2023-04-17T17:35:18.351Z,13.83
2023-04-17T17:38:21.076Z,13.23
2023-04-17T17:41:24.040Z,16.58
2023-04-17T17:44:26.715Z,15.80
2023-04-17T17:47:29.821Z,14.80
2023-04-17T17:50:33.960Z,17.07
2023-04-17T17:53:36.770Z,17.33
2023-04-17T17:56:39.605Z,13.88
2023-04-17T17:59:42.327Z,16.15
2023-04-17T18:02:45.268Z,15.82
2023-04-17T18:05:49.604Z,14.43
2023-04-17T18:08:52.884Z,16.23
2023-04-17T18:11:55.901Z,16.15
2023-04-17T18:14:58.604Z,14.98
2023-04-17T18:18:01.592Z,16.77
2023-04-17T18:21:08.295Z,15.37
2023-04-17T18:24:11.140Z,18.20
2023-04-17T18:27:14.195Z,16.73
2023-04-17T18:30:17.219Z,18.02
2023-04-17T18:33:20.308Z,16.25
2023-04-17T18:36:24.387Z,17.50
2023-04-17T18:39:27.207Z,18.73
2023-04-17T18:42:29.913Z,17.65
2023-04-17T18:45:32.634Z,16.77
2023-04-17T18:48:35.525Z,19.02
2023-04-17T18:51:39.576Z,17.77
2023-04-17T18:54:42.321Z,17.77
2023-04-17T18:57:45.076Z,17.83
2023-04-17T19:00:47.827Z,19.10
2023-04-17T19:03:51.161Z,18.17
2023-04-17T19:06:55.310Z,18.87
2023-04-17T19:09:58.043Z,19.67
2023-04-17T19:13:00.738Z,19.90
2023-04-17T19:16:03.668Z,19.48
2023-04-17T19:19:06.652Z,18.33
2023-04-17T19:22:10.765Z,18.77
2023-04-17T19:25:13.680Z,19.50
2023-04-17T19:28:16.436Z,17.83
2023-04-17T19:31:19.303Z,19.67
2023-04-17T19:34:22.133Z,19.55
2023-04-17T19:37:26.449Z,18.70
2023-04-17T19:40:29.480Z,20.60
2023-04-17T19:43:32.185Z,20.40
2023-04-17T19:46:35.071Z,20.88
2023-04-17T19:49:37.752Z,21.33
2023-04-17T19:52:43.226Z,20.57
2023-04-17T19:55:45.925Z,19.93
2023-04-17T19:58:48.728Z,19.63
2023-04-17T20:01:52.216Z,19.20
2023-04-17T20:04:54.956Z,19.67
2023-04-17T20:07:59.306Z,19.73
2023-04-17T20:11:02.052Z,23.10
2023-04-17T20:14:05.606Z,19.10
2023-04-17T20:17:08.525Z,18.27
2023-04-17T20:20:12.738Z,20.40
2023-04-17T20:23:16.949Z,19.73
2023-04-17T20:26:19.645Z,20.50
2023-04-17T20:29:23.196Z,21.08
2023-04-17T20:32:25.957Z,18.98
2023-04-17T20:35:28.886Z,18.00
2023-04-17T20:38:33.029Z,20.67
2023-04-17T20:41:37.290Z,21.38
2023-04-17T20:44:41.812Z,19.73
2023-04-17T20:50:51.007Z,20.17
2023-04-17T20:53:55.752Z,18.67
2023-04-17T20:56:58.594Z,20.63
2023-04-17T21:00:01.337Z,20.33
2023-04-17T21:03:04.412Z,21.65
2023-04-17T21:06:07.593Z,20.37
2023-04-17T21:09:14.225Z,22.03
2023-04-17T21:12:17.049Z,21.98
2023-04-17T21:15:19.878Z,18.45
2023-04-17T21:18:22.874Z,20.80
2023-04-17T21:21:26.231Z,22.40
2023-04-17T21:24:30.601Z,22.50
2023-04-17T21:27:33.478Z,20.75
2023-04-17T21:30:37.077Z,19.98
2023-04-17T21:33:40.181Z,21.67
2023-04-17T21:36:42.868Z,21.13
2023-04-17T21:39:47.086Z,19.20
2023-04-17T21:42:49.749Z,22.17
2023-04-17T21:45:52.707Z,20.88
2023-04-17T21:48:56.022Z,19.75
2023-04-17T21:51:58.720Z,20.93
2023-04-17T21:55:05.679Z,21.97
2023-04-17T21:58:08.590Z,21.95
2023-04-17T22:01:11.638Z,19.52
2023-04-17T22:04:14.782Z,19.42
2023-04-17T22:07:18.591Z,18.67
2023-04-17T22:10:23.141Z,20.30
2023-04-17T22:13:26.275Z,22.02
2023-04-17T22:16:29.293Z,21.20
2023-04-17T22:19:32.242Z,19.85
2023-04-17T22:22:35.195Z,20.63
2023-04-17T22:25:39.455Z,19.80
2023-04-17T22:28:42.470Z,20.77
2023-04-17T22:31:45.316Z,21.20
2023-04-17T22:34:49.414Z,23.40
2023-04-17T22:37:52.369Z,19.73
2023-04-17T22:40:57.776Z,23.07
2023-04-17T22:44:04.528Z,19.03
2023-04-17T22:47:07.479Z,22.35
2023-04-17T22:50:11.900Z,19.30
2023-04-17T22:53:15.047Z,18.17
2023-04-17T22:56:19.399Z,16.63
2023-04-17T22:59:22.409Z,20.90
2023-04-17T23:02:26.033Z,19.48
2023-04-17T23:05:28.971Z,19.23
2023-04-17T23:08:32.301Z,20.13
2023-04-17T23:11:37.011Z,20.90
2023-04-17T23:14:39.938Z,18.93
2023-04-17T23:17:43.198Z,19.80
2023-04-17T23:20:46.511Z,20.73
2023-04-17T23:23:49.449Z,18.55
2023-04-17T23:26:55.178Z,19.60
2023-04-17T23:29:59.048Z,25.30
2023-04-17T23:33:01.927Z,20.35
2023-04-17T23:36:05.152Z,19.05
2023-04-17T23:39:08.094Z,19.55
2023-04-17T23:42:12.486Z,17.83
2023-04-17T23:45:15.598Z,18.53
2023-04-17T23:48:18.733Z,17.90
2023-04-17T23:51:22.139Z,19.95
2023-04-17T23:54:25.458Z,19.17
2023-04-17T23:57:30.948Z,19.00
